createdAt,value
2023-02-01T00:01:11.387Z,98786.16
2023-02-01T00:03:39.148Z,98789.00
2023-02-01T00:06:06.676Z,98786.13
2023-02-01T00:08:34.370Z,98781.56
2023-02-01T00:11:10.973Z,98797.03
2023-02-01T00:13:42.117Z,98800.69
2023-02-01T00:16:20.718Z,98775.72
2023-02-01T00:18:51.974Z,98774.09
2023-02-01T00:21:22.051Z,98763.72
2023-02-01T00:23:49.730Z,98762.34
2023-02-01T00:26:34.432Z,98761.31
2023-02-01T00:29:11.758Z,98756.25
2023-02-01T00:31:39.142Z,98763.34
2023-02-01T00:34:09.695Z,98759.72
2023-02-01T00:36:36.900Z,98747.34
2023-02-01T00:39:04.728Z,98749.97
2023-02-01T00:41:32.161Z,98751.19
2023-02-01T00:43:59.539Z,98746.50
2023-02-01T00:46:26.951Z,98741.00
2023-02-01T00:48:55.600Z,98741.38
2023-02-01T00:51:27.166Z,98755.25
2023-02-01T00:53:55.259Z,98738.59
2023-02-01T00:56:22.793Z,98744.00
2023-02-01T00:58:50.575Z,98737.72
2023-02-01T01:01:27.913Z,98738.09
2023-02-01T01:04:00.278Z,98734.38
2023-02-01T01:06:30.965Z,98738.47
2023-02-01T01:09:02.628Z,98745.00
2023-02-01T01:11:34.252Z,98746.75
2023-02-01T01:14:04.521Z,98742.50
2023-02-01T01:16:33.749Z,98745.41
2023-02-01T01:19:02.946Z,98751.31
2023-02-01T01:21:31.263Z,98739.53
2023-02-01T01:23:59.569Z,98730.44
2023-02-01T01:26:29.982Z,98732.94
2023-02-01T01:29:00.510Z,98725.63
2023-02-01T01:31:29.995Z,98730.91
2023-02-01T01:34:00.300Z,98724.44
2023-02-01T01:36:30.646Z,98722.63
2023-02-01T01:38:58.368Z,98752.91
2023-02-01T01:41:32.198Z,98765.56
2023-02-01T01:44:58.578Z,98785.22
2023-02-01T01:47:34.439Z,98798.03
2023-02-01T01:50:08.797Z,98803.94
2023-02-01T01:52:41.166Z,98806.94
2023-02-01T01:55:10.892Z,98800.44
2023-02-01T01:57:45.206Z,98808.09
2023-02-01T02:00:18.025Z,98809.25
2023-02-01T02:02:54.157Z,98809.00
2023-02-01T02:05:22.777Z,98812.63
2023-02-01T02:07:53.853Z,98796.16
2023-02-01T02:10:21.804Z,98819.16
2023-02-01T02:12:50.004Z,98818.69
2023-02-01T02:15:18.595Z,98828.94
2023-02-01T02:18:03.548Z,98825.94
2023-02-01T02:21:04.597Z,98855.06
2023-02-01T02:24:01.096Z,98865.59
2023-02-01T02:26:48.009Z,98876.91
2023-02-01T02:29:42.809Z,98864.28
2023-02-01T02:32:50.784Z,98827.78
2023-02-01T02:35:52.663Z,98839.34
2023-02-01T02:38:45.623Z,98850.44
2023-02-01T02:41:52.883Z,98861.81
2023-02-01T02:45:16.954Z,98861.00
2023-02-01T02:48:22.169Z,98863.91
2023-02-01T02:51:27.572Z,98860.91
2023-02-01T02:54:22.424Z,98866.91
2023-02-01T02:57:13.092Z,98858.75
2023-02-01T03:00:04.121Z,98865.38
2023-02-01T03:02:54.214Z,98858.38
2023-02-01T03:05:22.279Z,98861.75
2023-02-01T03:08:14.034Z,98883.28
2023-02-01T03:11:07.711Z,98872.09
2023-02-01T03:13:53.519Z,98876.69
2023-02-01T03:16:32.811Z,98874.41
2023-02-01T03:19:22.955Z,98879.66
2023-02-01T03:22:06.872Z,98884.59
2023-02-01T03:24:40.002Z,98890.38
2023-02-01T03:27:33.769Z,98889.09
2023-02-01T03:30:25.339Z,98903.75
2023-02-01T03:33:02.625Z,98895.34
2023-02-01T03:36:08.851Z,98900.28
2023-02-01T03:38:53.335Z,98895.47
2023-02-01T03:41:47.599Z,98896.94
2023-02-01T03:44:38.939Z,98901.94
2023-02-01T03:47:17.301Z,98915.38
2023-02-01T03:49:55.375Z,98909.84
2023-02-01T03:52:31.978Z,98911.66
2023-02-01T03:55:01.390Z,98910.19
2023-02-01T03:57:35.850Z,98907.19
2023-02-01T04:00:12.706Z,98907.75
2023-02-01T04:02:43.201Z,98915.44
2023-02-01T04:05:10.679Z,98917.09
2023-02-01T04:07:44.881Z,98906.56
2023-02-01T04:10:13.316Z,98903.94
2023-02-01T04:12:42.433Z,98906.72
2023-02-01T04:15:10.179Z,98899.00
2023-02-01T04:20:05.635Z,98901.28
2023-02-01T04:22:33.506Z,98907.00
2023-02-01T04:25:00.756Z,98904.22
2023-02-01T04:27:28.312Z,98888.41
2023-02-01T04:29:58.455Z,98897.00
2023-02-01T04:32:26.194Z,98904.63
2023-02-01T04:34:53.219Z,98907.28
2023-02-01T04:37:20.797Z,98901.09
2023-02-01T04:39:47.855Z,98902.72
2023-02-01T04:42:15.619Z,98907.06
2023-02-01T04:44:42.965Z,98907.78
2023-02-01T04:47:10.666Z,98899.06
2023-02-01T04:49:37.963Z,98914.69
2023-02-01T04:52:06.045Z,98913.69
2023-02-01T04:54:33.131Z,98923.25
2023-02-01T04:57:00.981Z,98914.03
2023-02-01T04:59:28.863Z,98915.06
2023-02-01T05:01:56.543Z,98913.41
2023-02-01T05:04:23.898Z,98919.16
2023-02-01T05:06:51.572Z,98910.50
2023-02-01T05:09:18.889Z,98916.25
2023-02-01T05:12:05.029Z,98906.72
2023-02-01T05:14:32.376Z,98893.38
2023-02-01T05:17:00.129Z,98904.34
2023-02-01T05:19:30.499Z,98907.00
2023-02-01T05:21:58.497Z,98899.38
2023-02-01T05:24:25.707Z,98896.72
2023-02-01T05:26:53.252Z,98898.38
2023-02-01T05:29:20.952Z,98897.56
2023-02-01T05:31:49.414Z,98900.81
2023-02-01T05:34:17.655Z,98900.47
2023-02-01T05:36:45.432Z,98909.84
2023-02-01T05:39:12.823Z,98919.28
2023-02-01T05:41:40.181Z,98901.47
2023-02-01T05:44:10.003Z,98895.84
2023-02-01T05:46:38.382Z,98899.50
2023-02-01T05:49:06.456Z,98896.56
2023-02-01T05:51:34.750Z,98900.19
2023-02-01T05:54:05.171Z,98902.66
2023-02-01T05:56:33.761Z,98884.84
2023-02-01T06:01:30.715Z,98894.03
2023-02-01T06:03:57.924Z,98895.28
2023-02-01T06:06:25.636Z,98892.50
2023-02-01T06:08:52.724Z,98886.84
2023-02-01T06:11:31.819Z,98884.84
2023-02-01T06:14:00.267Z,98879.38
2023-02-01T06:16:28.784Z,98878.00
2023-02-01T06:18:56.217Z,98879.31
2023-02-01T06:21:26.113Z,98878.13
2023-02-01T06:23:55.105Z,98870.03
2023-02-01T06:26:22.585Z,98876.94
2023-02-01T06:28:50.550Z,98868.66
2023-02-01T06:31:18.491Z,98873.56
2023-02-01T06:33:47.878Z,98869.31
2023-02-01T06:36:17.090Z,98874.19
2023-02-01T06:38:44.359Z,98875.84
2023-02-01T06:41:12.259Z,98870.56
2023-02-01T06:43:39.955Z,98860.09
2023-02-01T06:46:14.158Z,98867.44
2023-02-01T06:48:41.462Z,98860.63
2023-02-01T06:51:24.979Z,98865.53
2023-02-01T06:53:55.238Z,98865.34
2023-02-01T06:56:22.976Z,98864.00
2023-02-01T06:58:51.435Z,98858.31
2023-02-01T07:01:19.389Z,98855.94
2023-02-01T07:03:52.312Z,98849.94
2023-02-01T07:06:30.259Z,98848.94
2023-02-01T07:08:58.986Z,98851.19
2023-02-01T07:11:28.457Z,98849.19
2023-02-01T07:13:56.039Z,98851.44
2023-02-01T07:16:23.821Z,98843.16
2023-02-01T07:18:53.613Z,98839.78
2023-02-01T07:21:21.544Z,98842.03
2023-02-01T07:23:48.937Z,98832.75
2023-02-01T07:26:17.476Z,98829.09
2023-02-01T07:28:44.964Z,98824.25
2023-02-01T07:31:20.228Z,98818.78
2023-02-01T07:33:49.109Z,98826.78
2023-02-01T07:36:18.429Z,98825.19
2023-02-01T07:38:48.377Z,98817.88
2023-02-01T07:41:16.960Z,98816.31
2023-02-01T07:43:44.737Z,98816.16
2023-02-01T07:46:12.508Z,98815.94
2023-02-01T07:48:39.736Z,98822.06
2023-02-01T07:51:17.426Z,98807.44
2023-02-01T07:53:46.083Z,98811.31
2023-02-01T07:56:23.774Z,98816.44
2023-02-01T07:58:53.435Z,98811.56
2023-02-01T08:01:25.879Z,98812.84
2023-02-01T08:04:04.233Z,98819.38
2023-02-01T08:06:35.516Z,98808.03
2023-02-01T08:09:05.244Z,98805.00
2023-02-01T08:11:33.186Z,98806.88
2023-02-01T08:14:01.055Z,98802.84
2023-02-01T08:16:28.748Z,98801.84
2023-02-01T08:18:56.278Z,98809.19
2023-02-01T08:21:37.486Z,98804.56
2023-02-01T08:24:09.346Z,98811.09
2023-02-01T08:26:37.165Z,98811.94
2023-02-01T08:29:06.942Z,98809.53
2023-02-01T08:31:36.327Z,98810.16
2023-02-01T08:34:09.448Z,98814.06
2023-02-01T08:36:39.201Z,98812.03
2023-02-01T08:39:09.930Z,98814.06
2023-02-01T08:41:38.267Z,98811.63
2023-02-01T08:44:05.759Z,98820.19
2023-02-01T08:46:33.259Z,98809.19
2023-02-01T08:49:00.736Z,98810.03
2023-02-01T08:51:29.825Z,98821.19
2023-02-01T08:53:57.125Z,98830.16
2023-02-01T08:56:24.545Z,98824.63
2023-02-01T08:58:52.075Z,98830.16
2023-02-01T09:01:19.626Z,98822.97
2023-02-01T09:03:47.079Z,98819.72
2023-02-01T09:06:16.218Z,98815.66
2023-02-01T09:08:44.586Z,98815.66
2023-02-01T09:11:22.652Z,98810.97
2023-02-01T09:13:49.953Z,98812.41
2023-02-01T09:16:17.870Z,98818.69
2023-02-01T09:18:56.017Z,98792.69
2023-02-01T09:21:33.213Z,98802.28
2023-02-01T09:24:00.333Z,98795.56
2023-02-01T09:26:33.164Z,98789.69
2023-02-01T09:29:04.687Z,98793.38
2023-02-01T09:31:32.416Z,98791.78
2023-02-01T09:33:59.612Z,98787.72
2023-02-01T09:36:30.095Z,98789.75
2023-02-01T09:38:59.385Z,98782.88
2023-02-01T09:42:00.868Z,98787.34
2023-02-01T09:44:51.179Z,98790.22
2023-02-01T09:47:24.402Z,98789.84
2023-02-01T09:50:03.141Z,98797.22
2023-02-01T09:52:42.852Z,98793.13
2023-02-01T09:55:23.299Z,98789.50
2023-02-01T09:58:05.155Z,98783.78
2023-02-01T10:00:40.510Z,98800.88
2023-02-01T10:03:14.364Z,98791.09
2023-02-01T10:06:14.787Z,98790.28
2023-02-01T10:09:13.392Z,98799.69
2023-02-01T10:12:14.534Z,98798.03
2023-02-01T10:15:16.014Z,98792.78
2023-02-01T10:18:08.423Z,98788.50
2023-02-01T10:20:58.348Z,98791.34
2023-02-01T10:24:01.153Z,98799.72
2023-02-01T10:26:39.219Z,98801.34
2023-02-01T10:29:19.768Z,98796.03
2023-02-01T10:31:48.089Z,98787.91
2023-02-01T10:34:34.675Z,98783.44
2023-02-01T10:37:20.480Z,98779.78
2023-02-01T10:39:50.831Z,98783.03
2023-02-01T10:42:25.921Z,98782.00
2023-02-01T10:44:57.152Z,98775.28
2023-02-01T10:47:25.416Z,98781.41
2023-02-01T10:50:41.663Z,98772.44
2023-02-01T10:53:22.842Z,98785.28
2023-02-01T10:55:54.231Z,98771.81
2023-02-01T10:58:32.691Z,98775.47
2023-02-01T11:01:16.988Z,98764.66
2023-02-01T11:03:59.412Z,98762.63
2023-02-01T11:06:36.646Z,98754.88
2023-02-01T11:09:07.169Z,98759.34
2023-02-01T11:11:55.811Z,98749.94
2023-02-01T11:14:26.537Z,98760.16
2023-02-01T11:16:56.211Z,98751.19
2023-02-01T11:19:24.733Z,98750.34
2023-02-01T11:21:55.634Z,98753.22
2023-02-01T11:24:33.859Z,98747.50
2023-02-01T11:27:06.913Z,98751.38
2023-02-01T11:29:42.957Z,98755.44
2023-02-01T11:32:13.872Z,98747.91
2023-02-01T11:35:00.903Z,98747.09
2023-02-01T11:37:38.356Z,98746.06
2023-02-01T11:40:35.103Z,98753.25
2023-02-01T11:43:30.112Z,98753.66
2023-02-01T11:46:04.445Z,98745.53
2023-02-01T11:48:34.541Z,98757.97
2023-02-01T11:51:48.584Z,98745.09
2023-02-01T11:54:27.778Z,98739.81
2023-02-01T11:57:09.891Z,98742.69
2023-02-01T11:59:56.793Z,98728.19
2023-02-01T12:02:59.554Z,98719.81
2023-02-01T12:05:47.663Z,98719.81
2023-02-01T12:08:39.953Z,98716.75
2023-02-01T12:11:49.848Z,98705.16
2023-02-01T12:14:55.350Z,98713.91
2023-02-01T12:18:24.745Z,98707.00
2023-02-01T12:21:29.576Z,98695.81
2023-02-01T12:24:49.182Z,98700.50
2023-02-01T12:27:54.539Z,98703.16
2023-02-01T12:30:55.006Z,98703.13
2023-02-01T12:33:53.214Z,98701.09
2023-02-01T12:36:50.894Z,98707.25
2023-02-01T12:39:46.606Z,98709.69
2023-02-01T12:42:30.409Z,98700.31
2023-02-01T12:45:39.221Z,98698.25
2023-02-01T12:48:36.816Z,98692.16
2023-02-01T12:51:13.463Z,98683.22
2023-02-01T12:53:48.980Z,98679.53
2023-02-01T12:56:29.949Z,98683.97
2023-02-01T12:59:03.365Z,98674.63
2023-02-01T13:01:57.378Z,98670.94
2023-02-01T13:04:37.520Z,98662.56
2023-02-01T13:07:18.154Z,98659.75
2023-02-01T13:10:05.711Z,98653.41
2023-02-01T13:12:51.391Z,98662.78
2023-02-01T13:15:35.061Z,98651.41
2023-02-01T13:18:07.962Z,98654.84
2023-02-01T13:20:48.334Z,98654.63
2023-02-01T13:23:52.292Z,98651.16
2023-02-01T13:26:19.458Z,98647.69
2023-02-01T13:29:07.936Z,98636.06
2023-02-01T13:33:51.719Z,98639.13
2023-02-01T13:36:20.904Z,98632.56
2023-02-01T13:39:27.677Z,98630.94
2023-02-01T13:42:07.892Z,98636.25
2023-02-01T13:44:43.903Z,98635.03
2023-02-01T13:47:34.908Z,98624.88
2023-02-01T13:50:28.202Z,98628.53
2023-02-01T13:53:12.270Z,98628.75
2023-02-01T13:55:44.894Z,98628.53
2023-02-01T13:58:39.869Z,98623.41
2023-02-01T14:01:22.469Z,98621.78
2023-02-01T14:03:55.808Z,98626.50
2023-02-01T14:06:28.964Z,98616.72
2023-02-01T14:09:15.316Z,98620.16
2023-02-01T14:11:46.937Z,98619.97
2023-02-01T14:14:34.367Z,98618.34
2023-02-01T14:17:01.523Z,98617.31
2023-02-01T14:19:33.212Z,98616.72
2023-02-01T14:22:21.569Z,98609.78
2023-02-01T14:24:58.120Z,98611.44
2023-02-01T14:27:36.756Z,98611.63
2023-02-01T14:30:15.309Z,98621.63
2023-02-01T14:32:47.714Z,98620.03
2023-02-01T14:35:26.591Z,98607.81
2023-02-01T14:38:05.085Z,98608.63
2023-02-01T14:40:33.072Z,98606.59
2023-02-01T14:43:00.276Z,98616.16
2023-02-01T14:45:28.880Z,98621.66
2023-02-01T14:48:08.478Z,98626.41
2023-02-01T14:50:42.032Z,98631.06
2023-02-01T14:53:13.075Z,98633.94
2023-02-01T14:55:50.306Z,98636.97
2023-02-01T14:58:42.747Z,98632.28
2023-02-01T15:01:32.801Z,98643.25
2023-02-01T15:04:22.895Z,98633.09
2023-02-01T15:06:53.313Z,98641.03
2023-02-01T15:09:43.644Z,98645.28
2023-02-01T15:12:15.919Z,98645.72
2023-02-01T15:15:03.717Z,98635.53
2023-02-01T15:17:34.996Z,98629.81
2023-02-01T15:20:12.671Z,98636.34
2023-02-01T15:22:41.139Z,98636.34
2023-02-01T15:25:22.930Z,98648.69
2023-02-01T15:27:50.897Z,98658.69
2023-02-01T15:30:23.987Z,98669.69
2023-02-01T15:32:52.892Z,98668.84
2023-02-01T15:35:48.864Z,98668.84
2023-02-01T15:38:25.818Z,98679.44
2023-02-01T15:41:21.865Z,98670.47
2023-02-01T15:43:55.420Z,98671.69
2023-02-01T15:46:38.220Z,98675.34
2023-02-01T15:49:26.260Z,98679.44
2023-02-01T15:51:55.808Z,98676.97
2023-02-01T15:54:43.893Z,98685.50
2023-02-01T15:57:11.601Z,98676.56
2023-02-01T15:59:45.825Z,98675.31
2023-02-01T16:02:45.018Z,98675.69
2023-02-01T16:05:36.984Z,98684.22
2023-02-01T16:08:28.828Z,98682.41
2023-02-01T16:11:15.451Z,98685.44
2023-02-01T16:13:42.753Z,98685.44
2023-02-01T16:16:14.817Z,98683.22
2023-02-01T16:18:42.869Z,98679.91
2023-02-01T16:21:10.651Z,98700.81
2023-02-01T16:23:38.839Z,98715.84
2023-02-01T16:26:07.512Z,98714.00
2023-02-01T16:28:35.229Z,98713.00
2023-02-01T16:31:03.211Z,98716.47
2023-02-01T16:33:30.615Z,98726.47
2023-02-01T16:36:00.983Z,98715.13
2023-02-01T16:38:28.703Z,98709.66
2023-02-01T16:40:58.562Z,98708.63
2023-02-01T16:43:27.244Z,98712.22
2023-02-01T16:46:01.345Z,98717.88
2023-02-01T16:48:37.886Z,98733.75
2023-02-01T16:51:11.698Z,98720.16
2023-02-01T16:53:53.491Z,98712.84
2023-02-01T16:56:33.029Z,98719.13
2023-02-01T16:59:00.442Z,98722.00
2023-02-01T17:01:30.892Z,98717.97
2023-02-01T17:03:58.236Z,98720.41
2023-02-01T17:06:28.429Z,98718.72
2023-02-01T17:09:02.581Z,98726.88
2023-02-01T17:11:33.473Z,98734.59
2023-02-01T17:14:22.540Z,98736.22
2023-02-01T17:16:51.475Z,98725.97
2023-02-01T17:19:26.170Z,98725.97
2023-02-01T17:21:59.884Z,98727.03
2023-02-01T17:24:46.631Z,98719.13
2023-02-01T17:27:18.124Z,98721.56
2023-02-01T17:29:47.277Z,98721.56
2023-02-01T17:32:23.583Z,98711.38
2023-02-01T17:34:51.433Z,98710.16
2023-02-01T17:37:27.272Z,98719.91
2023-02-01T17:39:54.805Z,98716.66
2023-02-01T17:42:24.430Z,98710.91
2023-02-01T17:44:57.885Z,98707.59
2023-02-01T17:47:25.321Z,98711.19
2023-02-01T17:49:56.872Z,98718.13
2023-02-01T17:52:26.417Z,98717.13
2023-02-01T17:54:54.373Z,98711.63
2023-02-01T17:57:22.613Z,98710.34
2023-02-01T17:59:49.811Z,98714.50
2023-02-01T18:02:23.046Z,98705.69
2023-02-01T18:04:51.888Z,98710.97
2023-02-01T18:07:19.952Z,98701.84
2023-02-01T18:09:47.188Z,98699.41
2023-02-01T18:12:25.737Z,98704.69
2023-02-01T18:14:53.061Z,98705.91
2023-02-01T18:17:21.147Z,98712.84
2023-02-01T18:19:48.452Z,98699.41
2023-02-01T18:22:20.108Z,98695.75
2023-02-01T18:24:47.592Z,98701.06
2023-02-01T18:27:15.327Z,98702.66
2023-02-01T18:29:42.696Z,98716.47
2023-02-01T18:32:11.337Z,98716.91
2023-02-01T18:34:39.365Z,98721.78
2023-02-01T18:37:07.152Z,98703.00
2023-02-01T18:39:34.182Z,98704.44
2023-02-01T18:42:02.505Z,98698.16
2023-02-01T18:44:29.888Z,98698.59
2023-02-01T18:46:57.333Z,98701.81
2023-02-01T18:49:24.547Z,98703.44
2023-02-01T18:51:53.046Z,98708.72
2023-02-01T18:54:20.418Z,98707.94
2023-02-01T18:56:48.088Z,98700.81
2023-02-01T18:59:39.925Z,98680.69
2023-02-01T19:02:10.674Z,98690.38
2023-02-01T19:04:37.882Z,98684.34
2023-02-01T19:07:05.432Z,98676.25
2023-02-01T19:09:35.302Z,98666.72
2023-02-01T19:12:05.311Z,98664.47
2023-02-01T19:14:32.504Z,98659.19
2023-02-01T19:17:00.622Z,98656.94
2023-02-01T19:19:28.616Z,98652.09
2023-02-01T19:21:56.220Z,98648.69
2023-02-01T19:24:27.990Z,98647.88
2023-02-01T19:26:57.118Z,98659.25
2023-02-01T19:29:24.556Z,98653.97
2023-02-01T19:31:52.055Z,98660.88
2023-02-01T19:34:19.424Z,98660.63
2023-02-01T19:36:47.905Z,98663.72
2023-02-01T19:39:15.450Z,98660.88
2023-02-01T19:41:43.105Z,98669.00
2023-02-01T19:44:10.149Z,98668.19
2023-02-01T19:46:38.568Z,98660.47
2023-02-01T19:49:07.792Z,98655.50
2023-02-01T19:51:35.252Z,98657.72
2023-02-01T19:54:02.853Z,98655.44
2023-02-01T19:56:30.245Z,98649.38
2023-02-01T19:58:57.547Z,98650.22
2023-02-01T20:01:25.452Z,98646.56
2023-02-01T20:03:53.344Z,98644.75
2023-02-01T20:06:21.161Z,98641.75
2023-02-01T20:08:49.042Z,98650.69
2023-02-01T20:11:16.574Z,98641.75
2023-02-01T20:13:43.551Z,98646.03
2023-02-01T20:16:11.076Z,98650.69
2023-02-01T20:18:38.868Z,98648.69
2023-02-01T20:21:06.476Z,98636.91
2023-02-01T20:23:33.858Z,98643.41
2023-02-01T20:26:11.578Z,98640.06
2023-02-01T20:28:38.991Z,98650.78
2023-02-01T20:31:08.102Z,98646.72
2023-02-01T20:33:35.336Z,98650.19
2023-02-01T20:36:04.493Z,98645.34
2023-02-01T20:38:31.879Z,98639.28
2023-02-01T20:41:15.712Z,98639.28
2023-02-01T20:43:42.968Z,98630.72
2023-02-01T20:46:10.502Z,98633.59
2023-02-01T20:48:38.195Z,98621.16
2023-02-01T20:51:06.037Z,98620.56
2023-02-01T20:53:33.476Z,98620.56
2023-02-01T20:56:01.378Z,98620.16
2023-02-01T20:58:30.094Z,98611.25
2023-02-01T21:00:57.579Z,98611.25
2023-02-01T21:03:25.416Z,98604.94
2023-02-01T21:05:57.454Z,98600.28
2023-02-01T21:08:27.314Z,98589.69
2023-02-01T21:11:13.853Z,98577.13
2023-02-01T21:13:50.706Z,98562.50
2023-02-01T21:16:21.857Z,98572.69
2023-02-01T21:18:51.883Z,98570.88
2023-02-01T21:21:20.031Z,98555.81
2023-02-01T21:23:48.575Z,98545.06
2023-02-01T21:26:24.101Z,98545.88
2023-02-01T21:28:55.282Z,98557.84
2023-02-01T21:31:25.930Z,98540.78
2023-02-01T21:33:53.291Z,98539.78
2023-02-01T21:36:21.012Z,98538.78
2023-02-01T21:38:51.399Z,98546.72
2023-02-01T21:41:40.386Z,98545.06
2023-02-01T21:44:09.142Z,98567.41
2023-02-01T21:46:36.754Z,98564.78
2023-02-01T21:49:06.383Z,98569.44
2023-02-01T21:51:37.862Z,98558.00
2023-02-01T21:54:10.307Z,98556.41
2023-02-01T21:56:39.024Z,98560.22
2023-02-01T21:59:07.836Z,98551.88
2023-02-01T22:01:37.512Z,98553.53
2023-02-01T22:04:05.069Z,98531.59
2023-02-01T22:06:38.565Z,98536.88
2023-02-01T22:09:06.716Z,98527.13
2023-02-01T22:11:34.148Z,98530.38
2023-02-01T22:14:02.756Z,98535.44
2023-02-01T22:16:31.693Z,98538.09
2023-02-01T22:18:59.198Z,98540.34
2023-02-01T22:21:27.392Z,98530.59
2023-02-01T22:23:57.548Z,98528.97
2023-02-01T22:26:27.422Z,98511.94
2023-02-01T22:28:55.052Z,98515.41
2023-02-01T22:31:23.935Z,98512.53
2023-02-01T22:33:51.188Z,98499.94
2023-02-01T22:36:18.997Z,98500.78
2023-02-01T22:38:48.689Z,98506.88
2023-02-01T22:41:16.712Z,98496.31
2023-02-01T22:43:45.272Z,98503.63
2023-02-01T22:46:18.615Z,98506.88
2023-02-01T22:48:47.261Z,98496.31
2023-02-01T22:51:29.644Z,98498.13
2023-02-01T22:53:57.884Z,98497.91
2023-02-01T22:56:30.178Z,98484.88
2023-02-01T22:59:00.665Z,98501.91
2023-02-01T23:01:29.734Z,98489.72
2023-02-01T23:04:00.958Z,98485.25
2023-02-01T23:06:32.388Z,98484.84
2023-02-01T23:09:11.367Z,98478.31
2023-02-01T23:11:39.595Z,98484.22
2023-02-01T23:14:07.776Z,98473.84
2023-02-01T23:16:35.455Z,98481.97
2023-02-01T23:19:02.898Z,98479.72
2023-02-01T23:21:30.371Z,98458.81
2023-02-01T23:24:04.651Z,98473.84
2023-02-01T23:26:33.406Z,98468.16
2023-02-01T23:29:02.694Z,98459.84
2023-02-01T23:31:34.961Z,98465.50
2023-02-01T23:34:04.971Z,98472.22
2023-02-01T23:36:33.708Z,98467.38
2023-02-01T23:39:02.947Z,98468.16
2023-02-01T23:41:31.722Z,98486.06
2023-02-01T23:43:58.919Z,98486.47
2023-02-01T23:46:39.158Z,98486.47
2023-02-01T23:49:08.928Z,98486.69
2023-02-01T23:51:37.455Z,98481.19
2023-02-01T23:54:11.351Z,98495.38
2023-02-01T23:56:43.201Z,98500.28
2023-02-01T23:59:16.544Z,98496.63
